createdAt,value
2019-02-18T00:00:54.622Z,23.15
2019-02-18T00:01:58.686Z,23.14
2019-02-18T00:03:00.331Z,23.14
2019-02-18T00:04:02.165Z,23.14
2019-02-18T00:05:04.311Z,23.14
2019-02-18T00:06:06.021Z,23.14
2019-02-18T00:07:14.456Z,23.12
2019-02-18T00:08:11.479Z,23.12
2019-02-18T00:09:12.993Z,23.12
2019-02-18T00:10:14.586Z,23.12
2019-02-18T00:11:16.613Z,23.12
2019-02-18T00:12:18.080Z,23.12
2019-02-18T00:13:19.677Z,23.11
2019-02-18T00:14:21.527Z,23.11
2019-02-18T00:15:23.416Z,23.11
2019-02-18T00:16:25.211Z,23.11
2019-02-18T00:17:26.788Z,23.10
2019-02-18T00:18:28.266Z,23.10
2019-02-18T00:19:29.921Z,23.10
2019-02-18T00:20:31.701Z,23.10
2019-02-18T00:21:33.074Z,23.10
2019-02-18T00:22:34.684Z,23.11
2019-02-18T00:23:37.852Z,23.10
2019-02-18T00:24:39.505Z,23.10
2019-02-18T00:25:41.269Z,23.11
2019-02-18T00:26:42.958Z,23.11
2019-02-18T00:27:44.832Z,23.11
2019-02-18T00:28:47.781Z,23.11
2019-02-18T00:29:49.182Z,23.11
2019-02-18T00:30:50.666Z,23.11
2019-02-18T00:31:52.111Z,23.14
2019-02-18T00:32:53.499Z,23.14
2019-02-18T00:33:55.038Z,23.14
2019-02-18T00:34:56.561Z,23.14
2019-02-18T00:35:58.032Z,23.16
2019-02-18T00:36:59.502Z,23.16
2019-02-18T00:38:00.994Z,23.15
2019-02-18T00:39:04.193Z,23.14
2019-02-18T00:40:08.852Z,23.13
2019-02-18T00:41:10.500Z,23.12
2019-02-18T00:42:11.958Z,23.12
2019-02-18T00:43:13.561Z,23.12
2019-02-18T00:44:15.096Z,23.10
2019-02-18T00:45:16.769Z,23.10
2019-02-18T00:46:18.222Z,23.10
2019-02-18T00:47:19.703Z,23.09
2019-02-18T00:48:21.102Z,23.08
2019-02-18T00:49:22.608Z,23.10
2019-02-18T00:50:24.281Z,23.10
2019-02-18T00:51:25.858Z,23.11
2019-02-18T00:52:27.359Z,23.13
2019-02-18T00:53:28.911Z,23.14
2019-02-18T00:54:30.312Z,23.14
2019-02-18T00:55:31.862Z,23.14
2019-02-18T00:56:33.312Z,23.12
2019-02-18T00:57:36.718Z,23.11
2019-02-18T00:58:38.309Z,23.10
2019-02-18T00:59:39.892Z,23.10
2019-02-18T01:00:41.573Z,23.08
2019-02-18T01:01:42.909Z,23.08
2019-02-18T01:02:45.194Z,23.08
2019-02-18T01:03:46.777Z,23.07
2019-02-18T01:04:48.359Z,23.07
2019-02-18T01:05:50.111Z,23.06
2019-02-18T01:06:51.623Z,23.06
2019-02-18T01:07:53.089Z,23.06
2019-02-18T01:08:56.745Z,23.06
2019-02-18T01:09:58.010Z,23.06
2019-02-18T01:10:59.376Z,23.06
2019-02-18T01:12:00.796Z,23.06
2019-02-18T01:13:02.503Z,23.05
2019-02-18T01:14:04.231Z,23.05
2019-02-18T01:15:08.726Z,23.05
2019-02-18T01:16:10.385Z,23.05
2019-02-18T01:17:11.945Z,23.05
2019-02-18T01:18:14.161Z,23.05
2019-02-18T01:19:16.685Z,23.05
2019-02-18T01:20:18.127Z,23.05
2019-02-18T01:21:19.533Z,23.04
2019-02-18T01:22:21.108Z,23.05
2019-02-18T01:23:22.595Z,23.04
2019-02-18T01:24:24.194Z,23.04
2019-02-18T01:25:25.591Z,23.04
2019-02-18T01:26:26.940Z,23.04
2019-02-18T01:27:28.290Z,23.05
2019-02-18T01:28:29.867Z,23.06
2019-02-18T01:29:31.558Z,23.05
2019-02-18T01:30:33.234Z,23.05
2019-02-18T01:31:34.867Z,23.06
2019-02-18T01:32:36.376Z,23.06
2019-02-18T01:33:37.795Z,23.07
2019-02-18T01:34:39.454Z,23.06
2019-02-18T01:35:41.163Z,23.07
2019-02-18T01:36:43.804Z,23.08
2019-02-18T01:37:46.354Z,23.04
2019-02-18T01:38:48.014Z,23.04
2019-02-18T01:39:49.507Z,23.06
2019-02-18T01:40:50.995Z,23.04
2019-02-18T01:41:54.150Z,23.04
2019-02-18T01:42:55.962Z,23.03
2019-02-18T01:43:57.577Z,23.01
2019-02-18T01:44:59.402Z,23.00
2019-02-18T01:46:00.831Z,22.99
2019-02-18T01:47:02.714Z,22.98
2019-02-18T01:48:04.501Z,22.98
2019-02-18T01:49:06.015Z,22.97
2019-02-18T01:50:10.144Z,22.97
2019-02-18T01:51:11.685Z,22.97
2019-02-18T01:52:12.935Z,22.95
2019-02-18T01:53:14.455Z,22.97
2019-02-18T01:54:15.877Z,22.95
2019-02-18T01:55:18.853Z,22.95
2019-02-18T01:56:20.303Z,22.96
2019-02-18T01:57:21.775Z,22.94
2019-02-18T01:58:23.409Z,22.94
2019-02-18T01:59:24.797Z,22.96
2019-02-18T02:00:26.483Z,22.95
2019-02-18T02:01:28.042Z,22.95
2019-02-18T02:02:30.507Z,22.94
2019-02-18T02:03:32.430Z,22.94
2019-02-18T02:04:33.841Z,22.94
2019-02-18T02:05:35.661Z,22.94
2019-02-18T02:06:37.465Z,22.97
2019-02-18T02:07:39.107Z,22.99
2019-02-18T02:08:40.689Z,23.01
2019-02-18T02:09:41.956Z,23.01
2019-02-18T02:10:43.803Z,23.04
2019-02-18T02:11:45.346Z,23.04
2019-02-18T02:12:46.924Z,23.04
2019-02-18T02:13:48.310Z,23.04
2019-02-18T02:14:49.661Z,23.02
2019-02-18T02:15:51.513Z,23.02
2019-02-18T02:16:53.488Z,23.02
2019-02-18T02:17:55.074Z,23.02
2019-02-18T02:18:56.552Z,23.02
2019-02-18T02:19:58.201Z,23.02
2019-02-18T02:20:59.874Z,23.02
2019-02-18T02:22:01.493Z,23.02
2019-02-18T02:23:02.897Z,23.00
2019-02-18T02:24:04.474Z,23.01
2019-02-18T02:25:06.356Z,23.02
2019-02-18T02:26:07.806Z,23.03
2019-02-18T02:27:09.374Z,23.03
2019-02-18T02:28:11.624Z,23.03
2019-02-18T02:29:13.198Z,23.03
2019-02-18T02:30:15.233Z,23.05
2019-02-18T02:31:16.958Z,23.03
2019-02-18T02:32:18.388Z,23.03
2019-02-18T02:33:20.210Z,23.01
2019-02-18T02:34:21.759Z,23.00
2019-02-18T02:35:24.463Z,23.00
2019-02-18T02:36:26.115Z,22.98
2019-02-18T02:37:27.448Z,22.98
2019-02-18T02:38:28.914Z,22.98
2019-02-18T02:39:30.386Z,22.98
2019-02-18T02:40:32.040Z,22.98
2019-02-18T02:41:35.855Z,22.96
2019-02-18T02:42:37.269Z,22.97
2019-02-18T02:43:38.727Z,22.95
2019-02-18T02:44:40.579Z,22.96
2019-02-18T02:45:42.139Z,22.96
2019-02-18T02:46:44.503Z,22.96
2019-02-18T02:47:46.090Z,22.96
2019-02-18T02:48:47.669Z,22.96
2019-02-18T02:49:49.037Z,22.96
2019-02-18T02:50:50.572Z,22.98
2019-02-18T02:51:52.298Z,22.98
2019-02-18T02:52:53.754Z,22.99
2019-02-18T02:53:55.462Z,23.00
2019-02-18T02:54:56.831Z,23.00
2019-02-18T02:55:58.497Z,23.01
2019-02-18T02:57:00.147Z,23.02
2019-02-18T02:58:01.384Z,23.01
2019-02-18T02:59:03.015Z,23.03
2019-02-18T03:00:12.738Z,23.04
2019-02-18T03:01:14.316Z,23.04
2019-02-18T03:02:16.026Z,23.04
2019-02-18T03:03:17.742Z,23.04
2019-02-18T03:04:19.129Z,23.04
2019-02-18T03:05:21.128Z,23.04
2019-02-18T03:06:23.322Z,23.04
2019-02-18T03:07:24.940Z,23.04
2019-02-18T03:08:26.476Z,23.04
2019-02-18T03:09:28.409Z,23.04
2019-02-18T03:10:29.972Z,23.06
2019-02-18T03:11:31.690Z,23.05
2019-02-18T03:12:33.094Z,23.05
2019-02-18T03:13:34.456Z,23.05
2019-02-18T03:14:35.950Z,23.05
2019-02-18T03:15:37.203Z,23.05
2019-02-18T03:16:38.770Z,23.05
2019-02-18T03:17:40.322Z,23.06
2019-02-18T03:18:41.887Z,23.06
2019-02-18T03:19:43.770Z,23.07
2019-02-18T03:20:46.646Z,23.07
2019-02-18T03:21:48.045Z,23.07
2019-02-18T03:22:49.849Z,23.07
2019-02-18T03:23:52.283Z,23.07
2019-02-18T03:25:21.978Z,23.07
2019-02-18T03:26:23.581Z,23.06
2019-02-18T03:27:25.010Z,23.06
2019-02-18T03:28:45.546Z,23.05
2019-02-18T03:30:13.653Z,23.04
2019-02-18T03:31:18.757Z,23.03
2019-02-18T03:32:20.406Z,23.03
2019-02-18T03:33:40.467Z,23.02
2019-02-18T03:34:41.780Z,23.02
2019-02-18T03:35:43.471Z,22.99
2019-02-18T03:36:45.066Z,22.99
2019-02-18T03:37:46.705Z,23.00
2019-02-18T03:38:48.324Z,23.00
2019-02-18T03:39:49.959Z,23.00
2019-02-18T03:41:02.442Z,23.00
2019-02-18T03:41:55.275Z,22.99
2019-02-18T03:42:56.914Z,22.99
2019-02-18T03:43:58.669Z,22.98
2019-02-18T03:45:00.369Z,22.98
2019-02-18T03:46:02.252Z,22.95
2019-02-18T03:47:04.078Z,22.95
2019-02-18T03:48:05.599Z,22.96
2019-02-18T03:49:06.881Z,22.96
2019-02-18T03:50:08.547Z,22.97
2019-02-18T03:51:10.403Z,22.95
2019-02-18T03:52:11.757Z,22.97
2019-02-18T03:53:13.619Z,22.97
2019-02-18T03:54:15.473Z,22.97
2019-02-18T03:55:16.972Z,22.97
2019-02-18T03:56:18.662Z,22.96
2019-02-18T03:57:20.362Z,22.95
2019-02-18T03:58:22.125Z,22.94
2019-02-18T03:59:23.759Z,22.94
2019-02-18T04:00:25.421Z,22.93
2019-02-18T04:01:27.226Z,22.93
2019-02-18T04:02:29.053Z,22.93
2019-02-18T04:03:30.826Z,22.92
2019-02-18T04:04:32.660Z,22.94
2019-02-18T04:05:34.514Z,22.95
2019-02-18T04:06:35.962Z,22.95
2019-02-18T04:07:37.560Z,22.97
2019-02-18T04:08:42.880Z,22.99
2019-02-18T04:09:42.806Z,23.00
2019-02-18T04:10:47.098Z,23.00
2019-02-18T04:11:48.585Z,23.00
2019-02-18T04:12:49.867Z,22.98
2019-02-18T04:13:51.377Z,22.97
2019-02-18T04:14:52.821Z,22.97
2019-02-18T04:15:54.520Z,22.96
2019-02-18T04:16:56.010Z,22.96
2019-02-18T04:17:57.835Z,22.94
2019-02-18T04:18:59.418Z,22.94
2019-02-18T04:20:00.953Z,22.94
2019-02-18T04:21:02.588Z,22.92
2019-02-18T04:22:05.024Z,22.92
2019-02-18T04:23:06.549Z,22.90
2019-02-18T04:24:07.834Z,22.90
2019-02-18T04:25:09.468Z,22.90
2019-02-18T04:26:10.932Z,22.89
2019-02-18T04:27:12.708Z,22.89
2019-02-18T04:28:14.269Z,22.89
2019-02-18T04:29:15.741Z,22.89
2019-02-18T04:30:18.699Z,22.89
2019-02-18T04:31:19.955Z,22.89
2019-02-18T04:32:21.622Z,22.89
2019-02-18T04:33:23.205Z,22.89
2019-02-18T04:34:24.815Z,22.89
2019-02-18T04:35:26.428Z,22.88
2019-02-18T04:36:28.106Z,22.89
2019-02-18T04:37:29.480Z,22.89
2019-02-18T04:38:30.917Z,22.89
2019-02-18T04:39:32.395Z,22.88
2019-02-18T04:40:33.862Z,22.88
2019-02-18T04:41:35.394Z,22.89
2019-02-18T04:42:36.783Z,22.89
2019-02-18T04:43:38.877Z,22.89
2019-02-18T04:44:40.439Z,22.89
2019-02-18T04:45:42.100Z,22.89
2019-02-18T04:46:43.668Z,22.89
2019-02-18T04:47:45.478Z,22.89
2019-02-18T04:48:46.963Z,22.90
2019-02-18T04:49:48.397Z,22.90
2019-02-18T04:50:51.449Z,22.90
2019-02-18T04:51:53.107Z,22.91
2019-02-18T04:52:54.780Z,22.90
2019-02-18T04:53:56.529Z,22.90
2019-02-18T04:54:57.999Z,22.90
2019-02-18T04:55:59.744Z,22.90
2019-02-18T04:57:01.673Z,22.90
2019-02-18T04:58:06.082Z,22.90
2019-02-18T04:59:06.518Z,22.90
2019-02-18T05:00:09.291Z,22.90
2019-02-18T05:01:11.000Z,22.89
2019-02-18T05:02:12.616Z,22.88
2019-02-18T05:03:13.920Z,22.89
2019-02-18T05:04:15.819Z,22.88
2019-02-18T05:05:17.206Z,22.90
2019-02-18T05:06:19.041Z,22.89
2019-02-18T05:07:20.868Z,22.90
2019-02-18T05:08:22.353Z,22.90
2019-02-18T05:09:27.195Z,22.90
2019-02-18T05:10:28.570Z,22.91
2019-02-18T05:11:30.180Z,22.91
2019-02-18T05:12:31.830Z,22.93
2019-02-18T05:13:33.316Z,22.94
2019-02-18T05:14:34.992Z,22.94
2019-02-18T05:15:36.446Z,22.94
2019-02-18T05:16:37.850Z,22.95
2019-02-18T05:17:39.841Z,22.96
2019-02-18T05:18:41.095Z,22.94
2019-02-18T05:19:42.509Z,22.94
2019-02-18T05:20:44.116Z,22.92
2019-02-18T05:21:45.942Z,22.91
2019-02-18T05:22:47.775Z,22.91
2019-02-18T05:23:49.182Z,22.90
2019-02-18T05:24:50.609Z,22.90
2019-02-18T05:25:52.163Z,22.90
2019-02-18T05:26:53.757Z,22.89
2019-02-18T05:27:55.257Z,22.90
2019-02-18T05:28:56.797Z,22.90
2019-02-18T05:29:58.474Z,22.90
2019-02-18T05:30:59.845Z,22.91
2019-02-18T05:32:01.501Z,22.92
2019-02-18T05:33:02.957Z,22.93
2019-02-18T05:34:05.623Z,22.93
2019-02-18T05:35:07.227Z,22.93
2019-02-18T05:36:08.780Z,22.92
2019-02-18T05:37:10.353Z,22.93
2019-02-18T05:38:11.831Z,22.94
2019-02-18T05:39:18.109Z,22.93
2019-02-18T05:40:16.595Z,22.90
2019-02-18T05:41:18.285Z,22.92
2019-02-18T05:42:19.997Z,22.93
2019-02-18T05:43:21.459Z,22.93
2019-02-18T05:44:23.103Z,22.92
2019-02-18T05:45:26.181Z,22.93
2019-02-18T05:46:28.181Z,22.93
2019-02-18T05:47:29.646Z,22.94
2019-02-18T05:48:33.933Z,22.94
2019-02-18T05:49:37.797Z,22.94
2019-02-18T05:50:39.242Z,22.93
2019-02-18T05:51:40.656Z,22.94
2019-02-18T05:52:42.247Z,22.94
2019-02-18T05:53:43.598Z,22.95
2019-02-18T05:54:45.124Z,22.94
2019-02-18T05:55:47.552Z,22.94
2019-02-18T05:56:49.020Z,22.96
2019-02-18T05:57:50.396Z,22.95
2019-02-18T05:58:52.017Z,22.94
2019-02-18T05:59:53.580Z,22.94
2019-02-18T06:00:54.978Z,22.94
2019-02-18T06:01:56.394Z,22.94
2019-02-18T06:02:58.242Z,22.94
2019-02-18T06:04:00.238Z,22.94
2019-02-18T06:05:02.020Z,22.96
2019-02-18T06:06:03.550Z,22.95
2019-02-18T06:07:05.396Z,22.95
2019-02-18T06:08:07.140Z,22.95
2019-02-18T06:09:08.888Z,22.93
2019-02-18T06:10:10.204Z,22.92
2019-02-18T06:11:11.599Z,22.93
2019-02-18T06:12:13.338Z,22.91
2019-02-18T06:13:14.750Z,22.91
2019-02-18T06:14:16.162Z,22.91
2019-02-18T06:15:17.992Z,22.89
2019-02-18T06:16:21.801Z,22.89
2019-02-18T06:17:25.297Z,22.89
2019-02-18T06:18:26.901Z,22.89
2019-02-18T06:19:28.548Z,22.89
2019-02-18T06:20:30.667Z,22.89
2019-02-18T06:21:32.031Z,22.89
2019-02-18T06:22:33.559Z,22.89
2019-02-18T06:23:35.244Z,22.89
2019-02-18T06:24:36.721Z,22.89
2019-02-18T06:25:38.503Z,22.90
2019-02-18T06:26:39.939Z,22.92
2019-02-18T06:27:43.607Z,22.91
2019-02-18T06:28:45.297Z,22.93
2019-02-18T06:29:46.945Z,22.94
2019-02-18T06:30:48.513Z,22.93
2019-02-18T06:31:49.915Z,22.93
2019-02-18T06:32:51.291Z,22.95
2019-02-18T06:33:52.578Z,22.95
2019-02-18T06:34:56.346Z,22.96
2019-02-18T06:35:58.221Z,22.97
2019-02-18T06:36:59.509Z,22.97
2019-02-18T06:38:01.990Z,22.97
2019-02-18T06:39:04.964Z,22.97
2019-02-18T06:40:07.704Z,22.97
2019-02-18T06:41:09.288Z,22.97
2019-02-18T06:42:11.243Z,22.97
2019-02-18T06:43:13.242Z,22.96
2019-02-18T06:44:14.849Z,22.96
2019-02-18T06:45:33.445Z,22.96
2019-02-18T06:46:37.045Z,22.97
2019-02-18T06:47:38.399Z,22.95
2019-02-18T06:48:42.074Z,22.95
2019-02-18T06:49:43.354Z,22.95
2019-02-18T06:50:45.044Z,22.95
2019-02-18T06:51:46.357Z,22.95
2019-02-18T06:52:47.829Z,22.95
2019-02-18T06:53:49.397Z,22.95
2019-02-18T06:54:50.716Z,22.96
2019-02-18T06:55:52.259Z,22.96
2019-02-18T06:57:04.292Z,22.97
2019-02-18T06:58:19.446Z,22.97
2019-02-18T06:59:22.815Z,22.98
2019-02-18T07:00:24.756Z,22.99
2019-02-18T07:01:28.107Z,22.98
2019-02-18T07:02:31.468Z,22.97
2019-02-18T07:03:34.991Z,22.93
2019-02-18T07:04:44.486Z,22.93
2019-02-18T07:06:00.258Z,22.96
2019-02-18T07:07:06.060Z,22.96
2019-02-18T07:08:18.397Z,22.96
2019-02-18T07:09:30.676Z,22.96
2019-02-18T07:10:36.834Z,22.95
2019-02-18T07:11:43.336Z,22.95
2019-02-18T07:12:46.152Z,22.95
2019-02-18T07:13:47.628Z,22.94
2019-02-18T07:14:49.149Z,22.94
2019-02-18T07:15:50.682Z,22.94
2019-02-18T07:16:52.643Z,22.96
2019-02-18T07:17:54.123Z,22.95
2019-02-18T07:18:55.545Z,22.95
2019-02-18T07:19:57.127Z,22.96
2019-02-18T07:20:58.677Z,22.96
2019-02-18T07:22:00.211Z,22.97
2019-02-18T07:23:02.015Z,22.96
2019-02-18T07:24:03.457Z,22.97
2019-02-18T07:25:06.990Z,22.98
2019-02-18T07:26:08.473Z,22.98
2019-02-18T07:27:10.089Z,22.99
2019-02-18T07:28:11.837Z,22.98
2019-02-18T07:29:13.333Z,22.99
2019-02-18T07:30:14.953Z,23.00
2019-02-18T07:31:16.479Z,23.00
2019-02-18T07:32:18.129Z,23.00
2019-02-18T07:33:21.158Z,23.01
2019-02-18T07:34:22.417Z,23.01
2019-02-18T07:35:24.053Z,23.01
2019-02-18T07:36:25.589Z,23.01
2019-02-18T07:37:27.060Z,23.01
2019-02-18T07:38:28.783Z,23.01
2019-02-18T07:39:30.163Z,23.03
2019-02-18T07:40:31.439Z,23.04
2019-02-18T07:41:32.833Z,23.04
2019-02-18T07:42:34.211Z,23.04
2019-02-18T07:43:36.240Z,23.07
2019-02-18T07:44:37.826Z,23.06
2019-02-18T07:45:39.099Z,23.07
2019-02-18T07:46:40.819Z,23.09
2019-02-18T07:47:42.326Z,23.09
2019-02-18T07:48:43.636Z,23.10
2019-02-18T07:49:45.180Z,23.10
2019-02-18T07:50:46.653Z,23.11
2019-02-18T07:51:48.120Z,23.11
2019-02-18T07:52:49.732Z,23.12
2019-02-18T07:53:51.184Z,23.12
2019-02-18T07:54:52.652Z,23.12
2019-02-18T07:55:54.222Z,23.12
2019-02-18T07:56:55.836Z,23.14
2019-02-18T07:57:57.352Z,23.14
2019-02-18T07:59:01.000Z,23.14
2019-02-18T08:00:06.061Z,23.15
2019-02-18T08:01:07.574Z,23.17
2019-02-18T08:02:09.178Z,23.18
2019-02-18T08:03:10.922Z,23.16
2019-02-18T08:04:12.285Z,23.17
2019-02-18T08:05:13.649Z,23.18
2019-02-18T08:06:15.031Z,23.18
2019-02-18T08:07:16.606Z,23.18
2019-02-18T08:08:18.666Z,23.21
2019-02-18T08:09:20.226Z,23.21
2019-02-18T08:10:21.815Z,23.20
2019-02-18T08:11:23.355Z,23.21
2019-02-18T08:12:24.852Z,23.21
2019-02-18T08:13:26.792Z,23.21
2019-02-18T08:14:28.613Z,23.22
2019-02-18T08:15:31.587Z,23.23
2019-02-18T08:16:32.975Z,23.23
2019-02-18T08:17:34.505Z,23.23
2019-02-18T08:18:35.851Z,23.23
2019-02-18T08:19:37.251Z,23.23
2019-02-18T08:20:38.579Z,23.25
2019-02-18T08:21:39.861Z,23.26
2019-02-18T08:22:43.281Z,23.27
2019-02-18T08:23:45.021Z,23.27
2019-02-18T08:24:46.736Z,23.29
2019-02-18T08:25:49.159Z,23.30
2019-02-18T08:26:50.750Z,23.30
2019-02-18T08:27:52.259Z,23.31
2019-02-18T08:28:53.781Z,23.31
2019-02-18T08:29:55.174Z,23.32
2019-02-18T08:30:56.489Z,23.33
2019-02-18T08:31:58.177Z,23.33
2019-02-18T08:33:00.696Z,23.33
2019-02-18T08:34:02.102Z,23.34
2019-02-18T08:35:04.889Z,23.34
2019-02-18T08:36:06.577Z,23.35
2019-02-18T08:37:08.115Z,23.37
2019-02-18T08:38:09.615Z,23.37
2019-02-18T08:39:11.234Z,23.37
2019-02-18T08:40:22.001Z,23.38
2019-02-18T08:41:16.497Z,23.37
2019-02-18T08:42:17.877Z,23.39
2019-02-18T08:43:19.388Z,23.39
2019-02-18T08:44:21.301Z,23.40
2019-02-18T08:45:22.630Z,23.40
2019-02-18T08:46:24.868Z,23.41
2019-02-18T08:47:26.450Z,23.41
2019-02-18T08:48:27.881Z,23.41
2019-02-18T08:49:29.320Z,23.42
2019-02-18T08:50:30.848Z,23.43
2019-02-18T08:51:32.325Z,23.43
2019-02-18T08:52:33.826Z,23.44
2019-02-18T08:53:35.268Z,23.44
2019-02-18T08:54:36.674Z,23.46
2019-02-18T08:55:37.928Z,23.45
2019-02-18T08:56:39.625Z,23.45
2019-02-18T08:57:41.189Z,23.47
2019-02-18T08:58:42.930Z,23.47
2019-02-18T08:59:44.574Z,23.47
2019-02-18T09:00:46.009Z,23.48
2019-02-18T09:01:47.766Z,23.49
2019-02-18T09:02:49.717Z,23.49
2019-02-18T09:03:51.263Z,23.52
2019-02-18T09:04:52.730Z,23.52
2019-02-18T09:05:54.367Z,23.52
2019-02-18T09:06:55.976Z,23.53
2019-02-18T09:07:57.401Z,23.54
2019-02-18T09:08:58.740Z,23.54
2019-02-18T09:10:00.594Z,23.54
2019-02-18T09:11:02.366Z,23.55
2019-02-18T09:12:05.455Z,23.55
2019-02-18T09:13:06.945Z,23.56
2019-02-18T09:14:08.391Z,23.56
2019-02-18T09:15:10.074Z,23.56
2019-02-18T09:16:11.830Z,23.57
2019-02-18T09:17:13.387Z,23.57
2019-02-18T09:18:15.127Z,23.59
2019-02-18T09:19:16.729Z,23.59
2019-02-18T09:20:18.091Z,23.60
2019-02-18T09:21:21.700Z,23.59
2019-02-18T09:22:33.818Z,23.61
2019-02-18T09:23:46.120Z,23.61
2019-02-18T09:24:52.175Z,23.62
2019-02-18T09:25:53.971Z,23.62
2019-02-18T09:26:55.554Z,23.62
2019-02-18T09:27:57.021Z,23.63
2019-02-18T09:28:58.507Z,23.63
2019-02-18T09:30:03.701Z,23.63
2019-02-18T09:31:05.517Z,23.63
2019-02-18T09:32:07.211Z,23.63
2019-02-18T09:33:08.773Z,23.63
2019-02-18T09:34:10.182Z,23.65
2019-02-18T09:35:11.853Z,23.65
2019-02-18T09:36:13.539Z,23.66
2019-02-18T09:37:15.014Z,23.66
2019-02-18T09:38:24.468Z,23.66
2019-02-18T09:39:30.570Z,23.68
2019-02-18T09:40:23.731Z,23.68
2019-02-18T09:41:25.277Z,23.68
2019-02-18T09:42:26.958Z,23.69
2019-02-18T09:43:28.620Z,23.69
2019-02-18T09:44:30.214Z,23.70
2019-02-18T09:45:31.700Z,23.70
2019-02-18T09:46:34.180Z,23.70
2019-02-18T09:47:37.760Z,23.70
2019-02-18T09:48:40.412Z,23.72
2019-02-18T09:49:41.900Z,23.72
2019-02-18T09:50:43.256Z,23.72
2019-02-18T09:51:44.740Z,23.73
2019-02-18T09:52:46.324Z,23.74
2019-02-18T09:53:47.763Z,23.75
2019-02-18T09:54:49.060Z,23.75
2019-02-18T09:55:50.473Z,23.75
2019-02-18T09:56:51.957Z,23.76
2019-02-18T09:57:53.452Z,23.76
2019-02-18T09:58:54.930Z,23.77
2019-02-18T09:59:56.398Z,23.77
2019-02-18T10:00:57.727Z,23.78
2019-02-18T10:01:59.273Z,23.78
2019-02-18T10:03:01.019Z,23.79
2019-02-18T10:04:02.750Z,23.80
2019-02-18T10:05:05.171Z,23.80
2019-02-18T10:06:06.960Z,23.80
2019-02-18T10:07:08.360Z,23.80
2019-02-18T10:08:09.793Z,23.81
2019-02-18T10:09:11.504Z,23.81
2019-02-18T10:10:13.680Z,23.82
2019-02-18T10:11:15.727Z,23.83
2019-02-18T10:12:19.245Z,23.83
2019-02-18T10:13:20.757Z,23.83
2019-02-18T10:14:24.610Z,23.85
2019-02-18T10:15:26.163Z,23.85
2019-02-18T10:16:27.802Z,23.83
2019-02-18T10:17:29.619Z,23.85
2019-02-18T10:18:31.370Z,23.85
2019-02-18T10:19:32.719Z,23.85
2019-02-18T10:20:34.294Z,23.85
2019-02-18T10:21:35.834Z,23.85
2019-02-18T10:22:37.379Z,23.86
2019-02-18T10:23:39.011Z,23.88
2019-02-18T10:25:43.766Z,23.89
2019-02-18T10:26:46.234Z,23.89
2019-02-18T10:27:47.679Z,23.89
2019-02-18T10:28:49.138Z,23.90
2019-02-18T10:29:50.532Z,23.90
2019-02-18T10:30:52.063Z,23.90
2019-02-18T10:31:53.748Z,23.91
2019-02-18T10:32:55.274Z,23.91
2019-02-18T10:33:56.734Z,23.92
2019-02-18T10:34:58.264Z,23.92
2019-02-18T10:36:00.008Z,23.92
2019-02-18T10:37:01.644Z,23.93
2019-02-18T10:38:03.242Z,23.93
2019-02-18T10:39:05.424Z,23.94
2019-02-18T10:40:09.477Z,23.94
2019-02-18T10:41:12.053Z,23.95
2019-02-18T10:42:13.760Z,23.96
2019-02-18T10:43:15.290Z,23.97
2019-02-18T10:44:16.753Z,23.97
2019-02-18T10:45:18.478Z,23.98
2019-02-18T10:46:20.205Z,23.98
2019-02-18T10:47:21.926Z,24.00
2019-02-18T10:48:23.542Z,24.00
2019-02-18T10:49:25.098Z,24.00
2019-02-18T10:50:27.162Z,24.00
2019-02-18T10:51:28.909Z,24.02
2019-02-18T10:52:30.444Z,24.02
2019-02-18T10:53:32.007Z,24.03
2019-02-18T10:54:33.535Z,24.04
2019-02-18T10:55:35.121Z,24.05
2019-02-18T10:56:36.777Z,24.06
2019-02-18T10:57:39.104Z,24.06
2019-02-18T10:58:40.673Z,24.08
2019-02-18T10:59:42.313Z,24.08
2019-02-18T11:00:44.334Z,24.10
2019-02-18T11:01:46.077Z,24.10
2019-02-18T11:02:47.947Z,24.12
2019-02-18T11:03:50.639Z,24.12
2019-02-18T11:04:52.205Z,24.13
2019-02-18T11:05:53.867Z,24.15
2019-02-18T11:06:55.135Z,24.16
2019-02-18T11:07:57.096Z,24.16
2019-02-18T11:08:58.641Z,24.18
2019-02-18T11:10:00.385Z,24.19
2019-02-18T11:11:03.289Z,24.19
2019-02-18T11:12:04.845Z,24.20
2019-02-18T11:13:06.106Z,24.21
2019-02-18T11:14:07.799Z,24.21
2019-02-18T11:15:12.689Z,24.22
2019-02-18T11:16:14.058Z,24.22
2019-02-18T11:17:15.547Z,24.23
2019-02-18T11:18:17.026Z,24.24
2019-02-18T11:19:18.721Z,24.24
2019-02-18T11:20:20.165Z,24.25
2019-02-18T11:21:21.623Z,24.25
2019-02-18T11:22:23.519Z,24.26
2019-02-18T11:23:25.044Z,24.25
2019-02-18T11:24:26.511Z,24.27
2019-02-18T11:25:28.418Z,24.27
2019-02-18T11:26:29.920Z,24.27
2019-02-18T11:27:31.376Z,24.28
2019-02-18T11:28:33.334Z,24.29
2019-02-18T11:29:35.838Z,24.29
2019-02-18T11:30:39.214Z,24.29
2019-02-18T11:31:40.866Z,24.30
2019-02-18T11:32:42.825Z,24.30
2019-02-18T11:33:44.328Z,24.31
2019-02-18T11:34:45.888Z,24.32
2019-02-18T11:35:47.710Z,24.33
2019-02-18T11:36:50.374Z,24.32
2019-02-18T11:37:51.978Z,24.34
2019-02-18T11:38:53.791Z,24.36
2019-02-18T11:39:55.315Z,24.35
2019-02-18T11:40:56.773Z,24.35
2019-02-18T11:41:58.522Z,24.38
2019-02-18T11:43:00.717Z,24.39
2019-02-18T11:44:02.499Z,24.39
2019-02-18T11:45:07.031Z,24.40
2019-02-18T11:46:08.499Z,24.41
2019-02-18T11:47:10.261Z,24.41
2019-02-18T11:48:11.932Z,24.42
2019-02-18T11:49:13.298Z,24.42
2019-02-18T11:50:15.061Z,24.42
2019-02-18T11:51:16.786Z,24.42
2019-02-18T11:52:18.416Z,24.43
2019-02-18T11:53:19.985Z,24.45
2019-02-18T11:54:21.375Z,24.46
2019-02-18T11:55:22.905Z,24.43
2019-02-18T11:56:24.402Z,24.47
2019-02-18T11:57:26.176Z,24.47
2019-02-18T11:58:27.785Z,24.48
2019-02-18T11:59:30.873Z,24.48
2019-02-18T12:00:32.553Z,24.48
2019-02-18T12:01:34.319Z,24.48
2019-02-18T12:02:35.859Z,24.49
2019-02-18T12:03:37.459Z,24.49
2019-02-18T12:04:39.842Z,24.49
2019-02-18T12:05:41.306Z,24.49
2019-02-18T12:06:44.539Z,24.50
2019-02-18T12:07:46.071Z,24.51
2019-02-18T12:08:47.651Z,24.51
2019-02-18T12:09:48.949Z,24.51
2019-02-18T12:10:50.415Z,24.52
2019-02-18T12:11:52.043Z,24.53
2019-02-18T12:12:55.792Z,24.53
2019-02-18T12:13:56.837Z,24.53
2019-02-18T12:14:58.352Z,24.56
2019-02-18T12:15:59.711Z,24.55
2019-02-18T12:17:01.362Z,24.56
2019-02-18T12:18:02.933Z,24.57
2019-02-18T12:19:04.716Z,24.57
2019-02-18T12:20:11.406Z,24.58
2019-02-18T12:21:13.397Z,24.58
2019-02-18T12:22:14.912Z,24.59
2019-02-18T12:23:16.404Z,24.59
2019-02-18T12:24:17.852Z,24.60
2019-02-18T12:25:19.324Z,24.60
2019-02-18T12:26:22.718Z,24.62
2019-02-18T12:27:24.412Z,24.62
2019-02-18T12:28:25.864Z,24.62
2019-02-18T12:29:27.440Z,24.63
2019-02-18T12:30:29.242Z,24.63
2019-02-18T12:31:30.554Z,24.63
2019-02-18T12:32:33.219Z,24.65
2019-02-18T12:33:34.870Z,24.65
2019-02-18T12:34:36.238Z,24.65
2019-02-18T12:35:37.725Z,24.66
2019-02-18T12:36:39.205Z,24.66
2019-02-18T12:37:41.291Z,24.66
2019-02-18T12:38:42.746Z,24.66
2019-02-18T12:39:44.052Z,24.67
2019-02-18T12:40:45.657Z,24.67
2019-02-18T12:41:48.931Z,24.67
2019-02-18T12:42:50.459Z,24.68
2019-02-18T12:43:52.083Z,24.69
2019-02-18T12:44:53.561Z,24.70
2019-02-18T12:45:55.489Z,24.70
2019-02-18T12:46:57.236Z,24.70
2019-02-18T12:47:59.401Z,24.70
2019-02-18T12:49:00.929Z,24.72
2019-02-18T12:50:03.887Z,24.72
2019-02-18T12:51:05.439Z,24.70
2019-02-18T12:52:07.321Z,24.70
2019-02-18T12:53:09.709Z,24.71
2019-02-18T12:54:11.432Z,24.71
2019-02-18T12:55:13.164Z,24.71
2019-02-18T12:56:16.302Z,24.72
2019-02-18T12:57:18.439Z,24.71
2019-02-18T12:58:21.201Z,24.71
2019-02-18T12:59:23.037Z,24.72
2019-02-18T13:00:24.592Z,24.72
2019-02-18T13:01:27.793Z,24.72
2019-02-18T13:02:29.882Z,24.72
2019-02-18T13:03:31.347Z,24.71
2019-02-18T13:04:32.779Z,24.71
2019-02-18T13:05:35.216Z,24.72
2019-02-18T13:06:37.397Z,24.71
2019-02-18T13:07:38.950Z,24.72
2019-02-18T13:08:41.928Z,24.72
2019-02-18T13:09:43.286Z,24.71
2019-02-18T13:10:44.943Z,24.71
2019-02-18T13:11:46.505Z,24.73
2019-02-18T13:12:47.868Z,24.75
2019-02-18T13:13:49.444Z,24.75
2019-02-18T13:14:51.172Z,24.74
2019-02-18T13:15:53.254Z,24.75
2019-02-18T13:16:54.849Z,24.74
2019-02-18T13:17:56.360Z,24.75
2019-02-18T13:18:57.969Z,24.76
2019-02-18T13:19:59.476Z,24.75
2019-02-18T13:21:01.992Z,24.75